Nearby METAR Reports


EGGW - Luton Airport, United Kingdom
Distance from station: ESE 6mi, 9km
Updated: Wed, 18-Jul-2018 7:20am BST
Clear
Clear
 Wind from varies
Wind: varies 3 mph , 6 km/h
Temperature: 17°C
Dew Point: 11°C
Humidity: 68%
Barometer: 1018 hPa
Clouds: Clear
Visibility: 6 miles , 10 km
2018/07/18 06:20 EGGW 180620Z AUTO VRB03KT 9999 NCD 17/11 Q1018
EGTC - Cranfield, United Kingdom
Distance from station: NNW 13mi, 22km
Updated: Wed, 18-Jul-2018 7:20am BST
Clear
Clear
 Wind from WNW
Wind: WNW 6 mph , 9 km/h
Temperature: 18°C
Dew Point: 12°C
Humidity: 68%
Barometer: 1018 hPa
Summary: Clear
Visibility: greater than 7 miles , 10 km
2018/07/18 06:20 EGTC 180620Z 29005KT CAVOK 18/12 Q1018

Metar display script from Saratoga-Weather.org

Powered by Cumulus v1.9.4 (1098)